Time,TemperatureF,DewpointF,PressureIn,WindDirection,WindDirectionDegrees,WindSpeedMPH,WindSpeedGustMPH,Humidity,HourlyPrecipIn,Conditions,Clouds,dailyrainin,SoftwareType,DateUTC
2013-03-04 00:00:00,50.3,36.5,30.06,North,0,2.0,11.0,59,0.00,,,-99.99,WeatherLink 5.7,2013-03-04 05:00:00,
2013-03-04 00:15:00,50.5,36.7,30.05,North,0,1.0,9.0,59,0.00,,,-99.99,WeatherLink 5.7,2013-03-04 05:15:00,
2013-03-04 00:30:00,50.7,37.3,30.06,North,0,1.0,7.0,60,0.00,,,-99.99,WeatherLink 5.7,2013-03-04 05:30:00,
2013-03-04 00:45:00,50.8,37.0,30.05,North,0,1.0,6.0,59,0.00,,,-99.99,WeatherLink 5.7,2013-03-04 05:45:00,
2013-03-04 01:00:00,51.0,37.6,30.05,North,0,1.0,6.0,60,0.00,,,-99.99,WeatherLink 5.7,2013-03-04 06:00:00,
2013-03-04 01:15:00,51.1,37.7,30.05,North,0,0.0,9.0,60,0.00,,,-99.99,WeatherLink 5.7,2013-03-04 06:15:00,
2013-03-04 01:30:00,51.2,37.8,30.05,North,0,1.0,9.0,60,0.00,,,-99.99,WeatherLink 5.7,2013-03-04 06:30:00,
2013-03-04 01:45:00,51.3,37.4,30.04,North,0,0.0,6.0,59,0.00,,,-99.99,WeatherLink 5.7,2013-03-04 06:45:00,
2013-03-04 02:00:00,51.3,37.4,30.04,North,0,2.0,12.0,59,0.00,,,-99.99,WeatherLink 5.7,2013-03-04 07:00:00,
2013-03-04 02:15:00,51.0,36.7,30.04,North,0,4.0,11.0,58,0.00,,,-99.99,WeatherLink 5.7,2013-03-04 07:15:00,
2013-03-04 02:30:00,49.9,35.3,30.04,North,0,0.0,6.0,57,0.00,,,-99.99,WeatherLink 5.7,2013-03-04 07:30:00,
2013-03-04 02:45:00,48.6,34.0,30.04,North,0,0.0,7.0,57,0.00,,,-99.99,WeatherLink 5.7,2013-03-04 07:45:00,
2013-03-04 03:00:00,47.3,32.4,30.04,North,-999,0.0,0.0,56,0.00,,,-99.99,WeatherLink 5.7,2013-03-04 08:00:00,
2013-03-04 03:15:00,46.2,31.4,30.04,North,-999,0.0,0.0,56,0.00,,,-99.99,WeatherLink 5.7,2013-03-04 08:15:00,
2013-03-04 03:30:00,45.3,31.0,30.04,North,-999,0.0,0.0,57,0.00,,,-99.99,WeatherLink 5.7,2013-03-04 08:30:00,
2013-03-04 03:45:00,44.4,30.1,30.04,North,-999,0.0,0.0,57,0.00,,,-99.99,WeatherLink 5.7,2013-03-04 08:45:00,
2013-03-04 04:00:00,43.6,29.4,30.04,North,-999,0.0,0.0,57,0.00,,,-99.99,WeatherLink 5.7,2013-03-04 09:00:00,
2013-03-04 04:15:00,42.9,29.1,30.05,North,-999,0.0,0.0,58,0.00,,,-99.99,WeatherLink 5.7,2013-03-04 09:15:00,
2013-03-04 04:30:00,42.3,28.6,30.05,North,-999,0.0,0.0,58,0.00,,,-99.99,WeatherLink 5.7,2013-03-04 09:30:00,
2013-03-04 04:45:00,41.9,28.6,30.05,North,-999,0.0,0.0,59,0.00,,,-99.99,WeatherLink 5.7,2013-03-04 09:45:00,
2013-03-04 05:00:00,41.4,28.5,30.05,North,-999,0.0,0.0,60,0.00,,,-99.99,WeatherLink 5.7,2013-03-04 10:00:00,
2013-03-04 05:15:00,41.1,28.3,30.06,North,-999,0.0,0.0,60,0.00,,,-99.99,WeatherLink 5.7,2013-03-04 10:15:00,
2013-03-04 05:30:00,40.8,28.4,30.07,North,-999,0.0,0.0,61,0.00,,,-99.99,WeatherLink 5.7,2013-03-04 10:30:00,
2013-03-04 05:45:00,40.4,28.4,30.07,North,-999,0.0,0.0,62,0.00,,,-99.99,WeatherLink 5.7,2013-03-04 10:45:00,
2013-03-04 06:00:00,40.0,28.0,30.07,North,-999,0.0,0.0,62,0.00,,,-99.99,WeatherLink 5.7,2013-03-04 11:00:00,
2013-03-04 06:15:00,39.8,27.8,30.08,North,-999,0.0,0.0,62,0.00,,,-99.99,WeatherLink 5.7,2013-03-04 11:15:00,
2013-03-04 06:30:00,39.5,27.9,30.09,North,-999,0.0,0.0,63,0.00,,,-99.99,WeatherLink 5.7,2013-03-04 11:30:00,
2013-03-04 06:45:00,39.2,27.7,30.08,North,-999,0.0,0.0,63,0.00,,,-99.99,WeatherLink 5.7,2013-03-04 11:45:00,
2013-03-04 07:00:00,38.9,27.8,30.10,North,-999,0.0,0.0,64,0.00,,,-99.99,WeatherLink 5.7,2013-03-04 12:00:00,
2013-03-04 07:15:00,38.9,27.8,30.11,North,-999,0.0,0.0,64,0.00,,,-99.99,WeatherLink 5.7,2013-03-04 12:15:00,
2013-03-04 07:30:00,39.6,27.6,30.11,North,-999,0.0,0.0,62,0.00,,,-99.99,WeatherLink 5.7,2013-03-04 12:30:00,
2013-03-04 07:45:00,40.8,28.0,30.11,North,0,0.0,1.0,60,0.00,,,-99.99,WeatherLink 5.7,2013-03-04 12:45:00,
2013-03-04 08:00:00,42.2,28.0,30.12,North,0,0.0,3.0,57,0.00,,,-99.99,WeatherLink 5.7,2013-03-04 13:00:00,
2013-03-04 08:15:00,43.7,28.6,30.13,North,0,0.0,7.0,55,0.00,,,-99.99,WeatherLink 5.7,2013-03-04 13:15:00,
2013-03-04 08:30:00,45.5,29.3,30.13,North,0,1.0,7.0,53,0.00,,,-99.99,WeatherLink 5.7,2013-03-04 13:30:00,
2013-03-04 08:45:00,47.6,29.9,30.12,North,0,1.0,9.0,50,0.00,,,-99.99,WeatherLink 5.7,2013-03-04 13:45:00,
2013-03-04 09:00:00,49.4,30.0,30.11,North,0,1.0,10.0,47,0.00,,,-99.99,WeatherLink 5.7,2013-03-04 14:00:00,
2013-03-04 09:15:00,50.9,30.3,30.11,North,0,2.0,11.0,45,0.00,,,-99.99,WeatherLink 5.7,2013-03-04 14:15:00,
2013-03-04 09:30:00,52.2,31.5,30.11,North,0,3.0,11.0,45,0.00,,,-99.99,WeatherLink 5.7,2013-03-04 14:30:00,
2013-03-04 09:45:00,53.6,32.2,30.11,North,0,2.0,9.0,44,0.00,,,-99.99,WeatherLink 5.7,2013-03-04 14:45:00,
2013-03-04 10:00:00,54.8,32.7,30.11,North,0,2.0,9.0,43,0.00,,,-99.99,WeatherLink 5.7,2013-03-04 15:00:00,
2013-03-04 10:15:00,55.8,33.6,30.11,North,0,0.0,6.0,43,0.00,,,-99.99,WeatherLink 5.7,2013-03-04 15:15:00,
2013-03-04 10:30:00,56.7,33.8,30.12,North,0,0.0,7.0,42,0.00,,,-99.99,WeatherLink 5.7,2013-03-04 15:30:00,
2013-03-04 10:45:00,57.4,33.9,30.12,North,-999,0.0,0.0,41,0.00,,,-99.99,WeatherLink 5.7,2013-03-04 15:45:00,
2013-03-04 11:00:00,57.9,33.7,30.11,North,-999,0.0,0.0,40,0.00,,,-99.99,WeatherLink 5.7,2013-03-04 16:00:00,
2013-03-04 11:15:00,58.6,34.3,30.11,North,0,0.0,8.0,40,0.00,,,-99.99,WeatherLink 5.7,2013-03-04 16:15:00,
2013-03-04 11:30:00,58.7,34.4,30.10,North,0,0.0,5.0,40,0.00,,,-99.99,WeatherLink 5.7,2013-03-04 16:30:00,
2013-03-04 11:45:00,58.6,34.3,30.10,North,0,0.0,4.0,40,0.00,,,-99.99,WeatherLink 5.7,2013-03-04 16:45:00,
2013-03-04 12:00:00,58.4,34.2,30.09,North,0,0.0,5.0,40,0.00,,,-99.99,WeatherLink 5.7,2013-03-04 17:00:00,
2013-03-04 12:15:00,58.3,34.1,30.08,North,0,1.0,9.0,40,0.00,,,-99.99,WeatherLink 5.7,2013-03-04 17:15:00,
2013-03-04 12:30:00,58.4,34.8,30.08,North,0,1.0,5.0,41,0.00,,,-99.99,WeatherLink 5.7,2013-03-04 17:30:00,
2013-03-04 12:45:00,58.7,34.4,30.08,North,0,2.0,10.0,40,0.00,,,-99.99,WeatherLink 5.7,2013-03-04 17:45:00,
2013-03-04 13:00:00,58.7,34.4,30.07,North,0,1.0,7.0,40,0.00,,,-99.99,WeatherLink 5.7,2013-03-04 18:00:00,
2013-03-04 13:15:00,58.7,35.0,30.07,North,0,0.0,8.0,41,0.00,,,-99.99,WeatherLink 5.7,2013-03-04 18:15:00,
2013-03-04 13:30:00,58.5,34.9,30.07,North,0,1.0,7.0,41,0.00,,,-99.99,WeatherLink 5.7,2013-03-04 18:30:00,
2013-03-04 13:45:00,58.3,34.1,30.06,North,0,2.0,11.0,40,0.00,,,-99.99,WeatherLink 5.7,2013-03-04 18:45:00,
2013-03-04 14:00:00,57.8,33.6,30.05,North,0,1.0,9.0,40,0.00,,,-99.99,WeatherLink 5.7,2013-03-04 19:00:00,
2013-03-04 14:15:00,57.6,33.4,30.04,North,0,2.0,10.0,40,0.00,,,-99.99,WeatherLink 5.7,2013-03-04 19:15:00,
2013-03-04 14:30:00,57.4,33.3,30.04,North,0,1.0,9.0,40,0.00,,,-99.99,WeatherLink 5.7,2013-03-04 19:30:00,
2013-03-04 14:45:00,57.2,33.1,30.04,North,0,1.0,8.0,40,0.00,,,-99.99,WeatherLink 5.7,2013-03-04 19:45:00,
2013-03-04 15:00:00,57.3,33.2,30.04,North,0,1.0,7.0,40,0.00,,,-99.99,WeatherLink 5.7,2013-03-04 20:00:00,
2013-03-04 15:15:00,57.3,33.2,30.04,North,0,0.0,7.0,40,0.01,,,-99.99,WeatherLink 5.7,2013-03-04 20:15:00,
2013-03-04 15:30:00,57.3,33.2,30.04,North,0,1.0,10.0,40,0.01,,,-99.99,WeatherLink 5.7,2013-03-04 20:30:00,
2013-03-04 15:45:00,57.2,32.4,30.04,North,0,1.0,7.0,39,0.01,,,-99.99,WeatherLink 5.7,2013-03-04 20:45:00,
2013-03-04 16:00:00,57.1,33.0,30.04,North,0,1.0,12.0,40,0.01,,,-99.99,WeatherLink 5.7,2013-03-04 21:00:00,
2013-03-04 16:15:00,57.0,32.9,30.04,North,0,1.0,10.0,40,0.00,,,-99.99,WeatherLink 5.7,2013-03-04 21:15:00,
2013-03-04 16:30:00,56.8,33.3,30.05,North,0,2.0,12.0,41,0.00,,,-99.99,WeatherLink 5.7,2013-03-04 21:30:00,
2013-03-04 16:45:00,56.4,34.2,30.05,North,0,1.0,10.0,43,0.00,,,-99.99,WeatherLink 5.7,2013-03-04 21:45:00,
2013-03-04 17:00:00,56.0,34.4,30.05,North,0,1.0,7.0,44,0.00,,,-99.99,WeatherLink 5.7,2013-03-04 22:00:00,
2013-03-04 17:15:00,55.6,35.7,30.05,North,0,0.0,6.0,47,0.00,,,-99.99,WeatherLink 5.7,2013-03-04 22:15:00,
2013-03-04 17:30:00,55.2,35.3,30.05,North,0,1.0,7.0,47,0.00,,,-99.99,WeatherLink 5.7,2013-03-04 22:30:00,
2013-03-04 17:45:00,54.9,36.1,30.06,North,-999,0.0,0.0,49,0.00,,,-99.99,WeatherLink 5.7,2013-03-04 22:45:00,
2013-03-04 18:00:00,54.5,36.2,30.06,North,0,0.0,5.0,50,0.00,,,-99.99,WeatherLink 5.7,2013-03-04 23:00:00,
2013-03-04 18:15:00,54.2,36.5,30.06,North,0,0.0,5.0,51,0.00,,,-99.99,WeatherLink 5.7,2013-03-04 23:15:00,
2013-03-04 18:30:00,53.6,35.9,30.06,North,-999,0.0,0.0,51,0.00,,,-99.99,WeatherLink 5.7,2013-03-04 23:30:00,
2013-03-04 18:45:00,53.0,35.8,30.06,North,-999,0.0,0.0,52,0.00,,,-99.99,WeatherLink 5.7,2013-03-04 23:45:00,
2013-03-04 19:00:00,52.2,35.6,30.06,North,-999,0.0,0.0,53,0.00,,,-99.99,WeatherLink 5.7,2013-03-05 00:00:00,
2013-03-04 19:15:00,51.3,35.2,30.06,North,-999,0.0,0.0,54,0.00,,,-99.99,WeatherLink 5.7,2013-03-05 00:15:00,
2013-03-04 19:30:00,50.5,35.4,30.05,North,-999,0.0,0.0,56,0.00,,,-99.99,WeatherLink 5.7,2013-03-05 00:30:00,
2013-03-04 19:45:00,49.6,34.5,30.05,North,-999,0.0,0.0,56,0.00,,,-99.99,WeatherLink 5.7,2013-03-05 00:45:00,
2013-03-04 20:00:00,48.9,34.3,30.05,North,-999,0.0,0.0,57,0.00,,,-99.99,WeatherLink 5.7,2013-03-05 01:00:00,
2013-03-04 20:15:00,48.0,33.9,30.05,North,-999,0.0,0.0,58,0.00,,,-99.99,WeatherLink 5.7,2013-03-05 01:15:00,
2013-03-04 20:30:00,47.4,33.8,30.05,North,-999,0.0,0.0,59,0.00,,,-99.99,WeatherLink 5.7,2013-03-05 01:30:00,
2013-03-04 20:45:00,46.8,33.6,30.05,North,-999,0.0,0.0,60,0.00,,,-99.99,WeatherLink 5.7,2013-03-05 01:45:00,
2013-03-04 21:00:00,46.3,34.0,30.05,North,-999,0.0,0.0,62,0.00,,,-99.99,WeatherLink 5.7,2013-03-05 02:00:00,
2013-03-04 21:15:00,46.0,34.5,30.06,North,-999,0.0,0.0,64,0.00,,,-99.99,WeatherLink 5.7,2013-03-05 02:15:00,
2013-03-04 21:30:00,45.8,35.1,30.06,North,-999,0.0,0.0,66,0.00,,,-99.99,WeatherLink 5.7,2013-03-05 02:30:00,
2013-03-04 21:45:00,45.7,35.4,30.07,North,-999,0.0,0.0,67,0.00,,,-99.99,WeatherLink 5.7,2013-03-05 02:45:00,
2013-03-04 22:00:00,45.4,35.5,30.06,North,-999,0.0,0.0,68,0.00,,,-99.99,WeatherLink 5.7,2013-03-05 03:00:00,
2013-03-04 22:15:00,45.2,35.6,30.06,North,-999,0.0,0.0,69,0.00,,,-99.99,WeatherLink 5.7,2013-03-05 03:15:00,
2013-03-04 22:30:00,44.8,35.6,30.06,North,-999,0.0,0.0,70,0.00,,,-99.99,WeatherLink 5.7,2013-03-05 03:30:00,
2013-03-04 22:45:00,44.4,35.2,30.06,North,-999,0.0,0.0,70,0.00,,,-99.99,WeatherLink 5.7,2013-03-05 03:45:00,
2013-03-04 23:00:00,44.1,35.6,30.06,North,-999,0.0,0.0,72,0.00,,,-99.99,WeatherLink 5.7,2013-03-05 04:00:00,
2013-03-04 23:15:00,43.9,35.8,30.05,North,-999,0.0,0.0,73,0.00,,,-99.99,WeatherLink 5.7,2013-03-05 04:15:00,
2013-03-04 23:30:00,43.6,35.9,30.05,North,-999,0.0,0.0,74,0.00,,,-99.99,WeatherLink 5.7,2013-03-05 04:30:00,
2013-03-04 23:45:00,43.5,36.4,30.04,North,-999,0.0,0.0,76,0.00,,,-99.99,WeatherLink 5.7,2013-03-05 04:45:00,